Time;durP1;ratioP1;P1;durP2;ratioP2;P2;SDS_P1;SDS_P2;PMS_P1;PMS_P2;Temp;Humidity;BMP_temperature;BMP_pressure;BME280_temperature;BME280_humidity;BME280_pressure;Samples;Min_cycle;Max_cycle;Signal;HPM_P1;HPM_P2
2021/03/03 00:00:08;;;;;;;73.27;34.60;;;;;;;;;;759582;183;629320;-69
2021/03/03 00:02:34;;;;;;;78.07;37.13;;;;;;;;;;763473;183;627789;-69
2021/03/03 00:05:00;;;;;;;64.90;34.77;;;;;;;;;;760647;183;628526;-69
2021/03/03 00:07:26;;;;;;;68.90;35.97;;;;;;;;;;769797;181;616862;-69
2021/03/03 00:09:51;;;;;;;64.62;35.55;;;;;;;;;;766590;183;649357;-69
2021/03/03 00:12:17;;;;;;;65.13;34.67;;;;;;;;;;763813;183;638074;-69
2021/03/03 00:14:43;;;;;;;71.03;37.07;;;;;;;;;;765202;183;626661;-70
2021/03/03 00:17:09;;;;;;;78.20;40.97;;;;;;;;;;759739;183;630060;-69
2021/03/03 00:19:35;;;;;;;65.83;34.40;;;;;;;;;;758364;184;626842;-69
2021/03/03 00:22:01;;;;;;;72.97;37.10;;;;;;;;;;763972;183;632280;-68
2021/03/03 00:24:26;;;;;;;61.80;35.27;;;;;;;;;;765318;181;636765;-69
2021/03/03 00:26:52;;;;;;;58.20;31.67;;;;;;;;;;754815;183;2080322;-70
2021/03/03 00:29:18;;;;;;;62.93;31.87;;;;;;;;;;763726;183;640669;-69
2021/03/03 00:31:44;;;;;;;70.00;34.90;;;;;;;;;;770275;183;630243;-69
2021/03/03 00:34:10;;;;;;;72.87;31.83;;;;;;;;;;766736;183;625899;-69
2021/03/03 00:36:36;;;;;;;75.00;36.93;;;;;;;;;;765089;182;627673;-69
2021/03/03 00:39:01;;;;;;;71.23;32.53;;;;;;;;;;765481;183;615920;-68
2021/03/03 00:41:27;;;;;;;72.73;32.87;;;;;;;;;;762119;183;625197;-69
2021/03/03 00:43:53;;;;;;;64.93;31.70;;;;;;;;;;765717;183;629144;-69
2021/03/03 00:46:19;;;;;;;66.70;31.20;;;;;;;;;;771606;183;622743;-69
2021/03/03 00:48:45;;;;;;;63.20;29.80;;;;;;;;;;764439;183;618739;-69
2021/03/03 00:51:11;;;;;;;50.70;28.13;;;;;;;;;;765122;182;633893;-69
2021/03/03 00:53:37;;;;;;;54.67;26.27;;;;;;;;;;764972;183;626051;-69
2021/03/03 00:56:02;;;;;;;54.50;30.97;;;;;;;;;;762415;180;621039;-69
2021/03/03 00:58:28;;;;;;;69.57;31.87;;;;;;;;;;766027;183;636135;-69
2021/03/03 01:00:54;;;;;;;54.07;26.70;;;;;;;;;;762900;183;643173;-69
2021/03/03 01:03:20;;;;;;;61.67;29.10;;;;;;;;;;770874;183;637074;-69
2021/03/03 01:05:46;;;;;;;64.30;27.47;;;;;;;;;;762315;183;616467;-69
2021/03/03 01:08:12;;;;;;;61.77;29.80;;;;;;;;;;765330;183;624440;-69
2021/03/03 01:10:37;;;;;;;63.80;30.77;;;;;;;;;;767714;183;618150;-69
2021/03/03 01:13:03;;;;;;;74.40;32.13;;;;;;;;;;765532;181;633328;-70
2021/03/03 01:15:29;;;;;;;61.87;29.20;;;;;;;;;;766108;183;628177;-69
2021/03/03 01:18:00;;;;;;;64.67;31.10;;;;;;;;;;768883;183;625256;-70
2021/03/03 01:20:21;;;;;;;63.40;31.77;;;;;;;;;;756288;183;628656;-70
2021/03/03 01:22:47;;;;;;;64.73;30.33;;;;;;;;;;762090;183;625933;-70
2021/03/03 01:25:13;;;;;;;70.70;33.73;;;;;;;;;;760778;183;623460;-69
2021/03/03 01:27:39;;;;;;;69.73;34.10;;;;;;;;;;766788;183;618045;-69
2021/03/03 01:30:05;;;;;;;68.70;30.90;;;;;;;;;;755435;183;635711;-70
2021/03/03 01:32:31;;;;;;;64.80;29.43;;;;;;;;;;759733;183;646864;-69
2021/03/03 01:34:57;;;;;;;61.43;29.63;;;;;;;;;;770776;182;623752;-69
2021/03/03 01:37:23;;;;;;;72.05;30.60;;;;;;;;;;762173;183;625596;-70
2021/03/03 01:39:49;;;;;;;72.20;32.90;;;;;;;;;;762372;183;631047;-70
2021/03/03 01:42:15;;;;;;;61.13;32.60;;;;;;;;;;770257;183;619342;-70
2021/03/03 01:44:40;;;;;;;57.70;28.90;;;;;;;;;;768958;183;623043;-69
2021/03/03 01:47:06;;;;;;;70.63;28.87;;;;;;;;;;764184;183;631931;-69
2021/03/03 01:49:32;;;;;;;69.53;32.00;;;;;;;;;;765547;183;629164;-69
2021/03/03 01:51:58;;;;;;;63.13;31.87;;;;;;;;;;767220;183;625278;-70
2021/03/03 01:54:24;;;;;;;58.63;31.77;;;;;;;;;;765346;183;629723;-69
2021/03/03 01:56:50;;;;;;;63.40;29.60;;;;;;;;;;764697;182;633888;-69
2021/03/03 01:59:15;;;;;;;57.20;29.97;;;;;;;;;;766175;183;623541;-69
2021/03/03 02:01:41;;;;;;;68.00;31.67;;;;;;;;;;766193;183;634503;-69
2021/03/03 02:04:07;;;;;;;70.37;30.40;;;;;;;;;;758798;183;629944;-69
2021/03/03 02:06:34;;;;;;;65.47;31.27;;;;;;;;;;765459;183;617041;-69
2021/03/03 02:09:01;;;;;;;71.80;32.97;;;;;;;;;;765317;183;620129;-69
2021/03/03 02:11:28;;;;;;;65.13;31.37;;;;;;;;;;764853;183;623007;-69
2021/03/03 02:13:56;;;;;;;79.10;35.23;;;;;;;;;;762184;183;633280;-70
2021/03/03 02:16:21;;;;;;;69.50;32.50;;;;;;;;;;758891;181;641487;-70
2021/03/03 02:18:47;;;;;;;68.27;36.33;;;;;;;;;;764916;183;627657;-69
2021/03/03 02:21:25;;;;;;;56.50;29.17;;;;;;;;;;766603;183;618890;-70
2021/03/03 02:23:52;;;;;;;60.57;30.30;;;;;;;;;;765534;183;627046;-69
2021/03/03 02:26:19;;;;;;;67.40;33.13;;;;;;;;;;767098;183;623062;-69
2021/03/03 02:28:45;;;;;;;69.40;29.40;;;;;;;;;;764015;183;635305;-69
2021/03/03 02:31:11;;;;;;;65.00;32.27;;;;;;;;;;764418;183;633236;-69
2021/03/03 02:33:36;;;;;;;69.93;32.70;;;;;;;;;;769080;183;628797;-69
2021/03/03 02:36:02;;;;;;;66.70;34.40;;;;;;;;;;765861;183;625649;-69
2021/03/03 02:38:28;;;;;;;70.17;33.20;;;;;;;;;;760866;183;623484;-69
2021/03/03 02:40:54;;;;;;;61.50;30.10;;;;;;;;;;769082;182;636482;-70
2021/03/03 02:43:20;;;;;;;71.63;30.90;;;;;;;;;;763160;183;628972;-69
2021/03/03 02:45:47;;;;;;;66.18;31.70;;;;;;;;;;762746;182;667310;-69
2021/03/03 02:48:12;;;;;;;70.30;33.43;;;;;;;;;;764955;183;630016;-69
2021/03/03 02:50:38;;;;;;;71.33;34.43;;;;;;;;;;770492;183;620613;-69
2021/03/03 02:53:04;;;;;;;74.63;34.30;;;;;;;;;;762422;183;626291;-69
2021/03/03 02:55:30;;;;;;;72.93;34.97;;;;;;;;;;769225;182;638087;-69
2021/03/03 02:57:56;;;;;;;75.50;33.90;;;;;;;;;;768826;183;612320;-68
2021/03/03 03:00:22;;;;;;;86.13;34.73;;;;;;;;;;764768;183;630465;-69
2021/03/03 03:02:48;;;;;;;74.43;36.13;;;;;;;;;;764392;183;623282;-69
2021/03/03 03:05:14;;;;;;;81.77;37.47;;;;;;;;;;767041;183;623633;-69
2021/03/03 03:07:39;;;;;;;80.23;38.60;;;;;;;;;;766809;183;618507;-69
2021/03/03 03:10:06;;;;;;;83.47;36.70;;;;;;;;;;764852;183;628463;-68
2021/03/03 03:12:32;;;;;;;69.57;31.00;;;;;;;;;;757794;183;634947;-69
2021/03/03 03:14:57;;;;;;;121.40;40.37;;;;;;;;;;747990;185;626638;-69
2021/03/03 03:17:23;;;;;;;176.70;44.20;;;;;;;;;;760976;183;624847;-70
2021/03/03 03:19:49;;;;;;;275.40;55.10;;;;;;;;;;766782;183;627749;-69
2021/03/03 03:22:15;;;;;;;197.80;46.37;;;;;;;;;;753474;187;627902;-69
2021/03/03 03:24:41;;;;;;;214.07;50.63;;;;;;;;;;725994;194;664949;-69
2021/03/03 03:27:07;;;;;;;224.80;48.70;;;;;;;;;;755762;180;633285;-69
2021/03/03 03:29:32;;;;;;;207.83;55.10;;;;;;;;;;763888;183;626014;-69
2021/03/03 03:31:58;;;;;;;243.10;53.67;;;;;;;;;;751079;186;621835;-70
2021/03/03 03:34:24;;;;;;;197.00;51.10;;;;;;;;;;761147;183;633579;-70
2021/03/03 03:36:50;;;;;;;133.70;41.40;;;;;;;;;;763953;183;625520;-69
2021/03/03 03:39:16;;;;;;;179.95;47.38;;;;;;;;;;760366;183;621533;-69
2021/03/03 03:41:42;;;;;;;150.67;46.13;;;;;;;;;;764855;183;621535;-69
2021/03/03 03:44:08;;;;;;;100.53;42.00;;;;;;;;;;766189;183;629189;-69
2021/03/03 03:46:33;;;;;;;119.90;44.83;;;;;;;;;;759635;180;636105;-69
2021/03/03 03:48:59;;;;;;;87.03;37.50;;;;;;;;;;760019;183;630236;-69
2021/03/03 03:51:25;;;;;;;99.30;40.90;;;;;;;;;;759291;183;617943;-69
2021/03/03 03:53:51;;;;;;;100.30;40.13;;;;;;;;;;760567;184;614530;-68
2021/03/03 03:56:17;;;;;;;98.90;38.30;;;;;;;;;;763031;183;628563;-70
2021/03/03 03:58:43;;;;;;;95.77;36.93;;;;;;;;;;768099;181;635059;-69
2021/03/03 04:01:08;;;;;;;96.27;40.00;;;;;;;;;;771059;183;617392;-69
2021/03/03 04:03:34;;;;;;;101.17;38.90;;;;;;;;;;758728;183;621082;-69
2021/03/03 04:06:00;;;;;;;103.20;42.37;;;;;;;;;;763289;183;635746;-69
2021/03/03 04:08:26;;;;;;;184.93;48.97;;;;;;;;;;750077;187;629645;-69
2021/03/03 04:10:52;;;;;;;204.40;54.60;;;;;;;;;;764694;183;630431;-69
2021/03/03 04:13:18;;;;;;;191.77;52.13;;;;;;;;;;765250;183;628054;-69
2021/03/03 04:15:43;;;;;;;158.50;46.70;;;;;;;;;;760571;183;636533;-69
2021/03/03 04:18:10;;;;;;;283.57;62.07;;;;;;;;;;764134;183;627284;-69
2021/03/03 04:20:35;;;;;;;172.93;52.63;;;;;;;;;;763883;183;638048;-69
2021/03/03 04:23:02;;;;;;;154.33;45.50;;;;;;;;;;760595;183;619761;-69
2021/03/03 04:25:27;;;;;;;147.53;47.57;;;;;;;;;;766311;183;626530;-68
2021/03/03 04:27:53;;;;;;;130.37;47.67;;;;;;;;;;762202;183;635577;-69
2021/03/03 04:30:19;;;;;;;125.95;45.22;;;;;;;;;;764140;183;639895;-69
2021/03/03 04:32:45;;;;;;;145.90;48.10;;;;;;;;;;751894;187;628974;-69
2021/03/03 04:35:11;;;;;;;153.47;52.27;;;;;;;;;;742704;187;628316;-69
2021/03/03 04:37:37;;;;;;;218.93;50.60;;;;;;;;;;733972;188;626030;-69
2021/03/03 04:40:04;;;;;;;190.17;51.10;;;;;;;;;;754216;184;728329;-69
2021/03/03 04:42:29;;;;;;;207.87;54.27;;;;;;;;;;764915;183;631698;-69
2021/03/03 04:44:55;;;;;;;201.47;58.03;;;;;;;;;;761041;183;627260;-69
2021/03/03 04:47:22;;;;;;;203.93;61.00;;;;;;;;;;763255;183;639538;-69
2021/03/03 04:49:47;;;;;;;243.73;79.17;;;;;;;;;;753263;187;630381;-69
2021/03/03 04:52:13;;;;;;;267.60;72.67;;;;;;;;;;723932;193;630276;-70
2021/03/03 04:54:39;;;;;;;259.53;60.10;;;;;;;;;;756251;183;628416;-69
2021/03/03 04:57:05;;;;;;;266.63;60.97;;;;;;;;;;760977;183;629833;-69
2021/03/03 04:59:30;;;;;;;275.10;58.67;;;;;;;;;;761617;183;627610;-69
2021/03/03 05:01:56;;;;;;;285.87;60.07;;;;;;;;;;757609;180;630835;-68
2021/03/03 05:04:22;;;;;;;235.50;65.43;;;;;;;;;;762420;180;652626;-68
2021/03/03 05:06:48;;;;;;;321.47;94.27;;;;;;;;;;762002;180;629383;-68
2021/03/03 05:09:14;;;;;;;239.10;68.87;;;;;;;;;;762850;183;626712;-69
2021/03/03 05:11:40;;;;;;;253.50;59.97;;;;;;;;;;762592;182;621779;-69
2021/03/03 05:14:06;;;;;;;179.70;52.00;;;;;;;;;;759790;183;623739;-69
2021/03/03 05:16:31;;;;;;;233.43;58.10;;;;;;;;;;765802;183;631354;-68
2021/03/03 05:18:57;;;;;;;269.10;66.10;;;;;;;;;;762629;183;618510;-68
2021/03/03 05:21:23;;;;;;;204.93;52.37;;;;;;;;;;750639;187;630897;-69
2021/03/03 05:23:49;;;;;;;264.27;77.50;;;;;;;;;;756486;185;629605;-68
2021/03/03 05:26:15;;;;;;;280.53;62.43;;;;;;;;;;753494;185;627212;-68
2021/03/03 05:28:41;;;;;;;217.77;58.23;;;;;;;;;;754540;187;631605;-69
2021/03/03 05:31:06;;;;;;;217.70;61.80;;;;;;;;;;725920;194;634273;-69
2021/03/03 05:33:32;;;;;;;209.53;61.87;;;;;;;;;;723971;190;629961;-68
2021/03/03 05:35:59;;;;;;;311.27;68.83;;;;;;;;;;749334;188;635907;-69
2021/03/03 05:38:25;;;;;;;335.67;59.60;;;;;;;;;;765331;180;626634;-69
2021/03/03 05:40:51;;;;;;;307.93;70.57;;;;;;;;;;759524;181;626501;-69
2021/03/03 05:43:17;;;;;;;276.60;64.07;;;;;;;;;;756621;182;626643;-69
2021/03/03 05:45:43;;;;;;;511.87;89.20;;;;;;;;;;754199;186;617157;-68
2021/03/03 05:48:11;;;;;;;322.63;76.87;;;;;;;;;;762712;183;632401;-68
2021/03/03 05:50:37;;;;;;;316.87;66.20;;;;;;;;;;762319;180;625332;-68
2021/03/03 05:53:03;;;;;;;274.40;70.80;;;;;;;;;;761711;183;811825;-68
2021/03/03 05:55:29;;;;;;;386.87;80.27;;;;;;;;;;759132;183;659588;-70
2021/03/03 05:57:55;;;;;;;441.10;86.43;;;;;;;;;;759955;183;636092;-69
2021/03/03 06:00:21;;;;;;;384.80;76.30;;;;;;;;;;761472;183;622070;-68
2021/03/03 06:02:47;;;;;;;324.23;67.60;;;;;;;;;;761884;180;630891;-69
2021/03/03 06:05:12;;;;;;;333.07;72.93;;;;;;;;;;762114;180;620381;-69
2021/03/03 06:07:38;;;;;;;298.10;68.47;;;;;;;;;;760365;181;632116;-68
2021/03/03 06:10:04;;;;;;;300.37;71.30;;;;;;;;;;766510;180;628562;-68
2021/03/03 06:12:30;;;;;;;301.37;69.63;;;;;;;;;;760529;183;625956;-68
2021/03/03 06:14:56;;;;;;;277.63;63.37;;;;;;;;;;762699;183;634677;-68
2021/03/03 06:17:22;;;;;;;275.70;69.03;;;;;;;;;;767204;182;618780;-68
2021/03/03 06:19:48;;;;;;;223.73;63.27;;;;;;;;;;758765;183;622238;-68
2021/03/03 06:22:23;;;;;;;268.93;64.00;;;;;;;;;;761787;182;714522;-69
2021/03/03 06:24:49;;;;;;;238.47;62.93;;;;;;;;;;752243;187;618488;-67
2021/03/03 06:27:15;;;;;;;240.63;59.80;;;;;;;;;;734385;190;632505;-69
2021/03/03 06:29:41;;;;;;;285.43;63.13;;;;;;;;;;745108;187;684164;-68
2021/03/03 06:32:07;;;;;;;258.80;59.73;;;;;;;;;;749572;184;618727;-68
2021/03/03 06:34:33;;;;;;;276.77;59.97;;;;;;;;;;763989;182;620157;-68
2021/03/03 06:36:58;;;;;;;189.43;53.40;;;;;;;;;;757590;183;642710;-68
2021/03/03 06:39:24;;;;;;;225.77;54.90;;;;;;;;;;759582;183;630002;-69
2021/03/03 06:41:50;;;;;;;173.10;50.73;;;;;;;;;;763425;180;618971;-69
2021/03/03 06:44:16;;;;;;;188.27;49.17;;;;;;;;;;757677;184;626406;-68
2021/03/03 06:46:42;;;;;;;141.30;49.73;;;;;;;;;;762309;183;645656;-68
2021/03/03 06:49:12;;;;;;;139.30;46.07;;;;;;;;;;761053;182;630275;-67
2021/03/03 06:51:38;;;;;;;129.30;44.97;;;;;;;;;;761149;183;630288;-69
2021/03/03 06:54:03;;;;;;;139.60;50.63;;;;;;;;;;765088;183;631964;-70
2021/03/03 06:56:33;;;;;;;139.07;50.67;;;;;;;;;;757217;184;632040;-69
2021/03/03 06:59:05;;;;;;;131.40;47.97;;;;;;;;;;768147;183;627699;-69
2021/03/03 07:01:30;;;;;;;129.93;47.60;;;;;;;;;;770447;183;618837;-69
2021/03/03 07:03:56;;;;;;;121.40;48.57;;;;;;;;;;764321;182;622533;-69
2021/03/03 07:06:22;;;;;;;133.37;51.75;;;;;;;;;;762214;183;635290;-68
2021/03/03 07:08:57;;;;;;;133.57;52.50;;;;;;;;;;751413;187;620628;-67
2021/03/03 07:11:22;;;;;;;134.80;48.87;;;;;;;;;;742547;188;706105;-67
2021/03/03 07:13:48;;;;;;;151.60;50.77;;;;;;;;;;766143;183;623986;-66
2021/03/03 07:16:14;;;;;;;138.03;55.43;;;;;;;;;;765539;183;635732;-66
2021/03/03 07:18:40;;;;;;;129.17;50.83;;;;;;;;;;749662;187;634725;-66
2021/03/03 07:21:06;;;;;;;104.53;43.77;;;;;;;;;;752845;185;633491;-66
2021/03/03 07:23:37;;;;;;;121.47;46.07;;;;;;;;;;735829;189;644654;-64
2021/03/03 07:26:03;;;;;;;127.60;47.63;;;;;;;;;;740607;188;621211;-66
2021/03/03 07:28:29;;;;;;;111.93;38.70;;;;;;;;;;740799;189;631232;-67
2021/03/03 07:30:55;;;;;;;100.17;38.17;;;;;;;;;;741642;189;625026;-67
2021/03/03 07:33:21;;;;;;;109.40;40.70;;;;;;;;;;742279;188;623917;-66
2021/03/03 07:35:47;;;;;;;94.00;40.87;;;;;;;;;;744310;186;636928;-66
2021/03/03 07:38:13;;;;;;;70.67;33.63;;;;;;;;;;741279;189;636368;-67
2021/03/03 07:40:39;;;;;;;82.13;34.10;;;;;;;;;;740558;189;630939;-67
2021/03/03 07:43:04;;;;;;;81.70;37.10;;;;;;;;;;743097;189;616128;-68
2021/03/03 07:45:36;;;;;;;89.70;35.97;;;;;;;;;;732212;190;662904;-68
2021/03/03 07:48:02;;;;;;;92.90;39.23;;;;;;;;;;750202;187;648336;-67
2021/03/03 07:50:28;;;;;;;104.10;42.27;;;;;;;;;;744275;187;627121;-65
2021/03/03 07:52:54;;;;;;;110.80;46.80;;;;;;;;;;756779;185;617050;-66
2021/03/03 07:55:20;;;;;;;105.90;46.03;;;;;;;;;;766510;183;628055;-65
2021/03/03 07:57:45;;;;;;;108.93;43.57;;;;;;;;;;760409;183;630825;-65
2021/03/03 08:00:12;;;;;;;106.47;43.00;;;;;;;;;;751658;187;614045;-65
2021/03/03 08:02:43;;;;;;;99.40;39.87;;;;;;;;;;756919;185;630932;-68
2021/03/03 08:05:10;;;;;;;118.40;45.40;;;;;;;;;;733224;189;639399;-66
2021/03/03 08:07:36;;;;;;;117.33;46.60;;;;;;;;;;751847;186;631204;-65
2021/03/03 08:10:22;;;;;;;112.23;48.60;;;;;;;;;;749408;186;627424;-65
2021/03/03 08:12:54;;;;;;;111.33;45.37;;;;;;;;;;758233;185;631437;-66
2021/03/03 08:15:35;;;;;;;103.70;40.47;;;;;;;;;;749526;187;636751;-65
2021/03/03 08:18:07;;;;;;;124.23;43.73;;;;;;;;;;721561;190;627503;-64
2021/03/03 08:20:33;;;;;;;106.20;44.33;;;;;;;;;;738909;187;1611750;-64
2021/03/03 08:22:59;;;;;;;99.00;43.70;;;;;;;;;;759826;180;619933;-63
2021/03/03 08:25:30;;;;;;;100.20;42.47;;;;;;;;;;769892;183;631024;-64
2021/03/03 08:27:56;;;;;;;93.47;39.57;;;;;;;;;;766219;183;621855;-63
2021/03/03 08:30:22;;;;;;;82.97;36.27;;;;;;;;;;764402;183;629442;-63
2021/03/03 08:32:49;;;;;;;74.30;36.90;;;;;;;;;;767722;183;627202;-63
2021/03/03 08:35:14;;;;;;;75.33;36.27;;;;;;;;;;767693;183;619781;-63
2021/03/03 08:37:40;;;;;;;95.83;41.57;;;;;;;;;;762565;183;627454;-63
2021/03/03 08:40:12;;;;;;;82.23;40.83;;;;;;;;;;763275;183;629328;-63
2021/03/03 08:42:38;;;;;;;80.43;38.40;;;;;;;;;;752563;185;626887;-62
2021/03/03 08:45:03;;;;;;;98.13;42.00;;;;;;;;;;749605;187;628590;-61
2021/03/03 08:47:35;;;;;;;80.97;39.70;;;;;;;;;;734529;190;643763;-62
2021/03/03 08:50:21;;;;;;;94.83;45.90;;;;;;;;;;757373;183;622888;-62
2021/03/03 08:53:02;;;;;;;118.60;46.47;;;;;;;;;;764278;181;626444;-62
2021/03/03 08:55:29;;;;;;;110.83;47.07;;;;;;;;;;760953;183;627767;-62
2021/03/03 08:57:55;;;;;;;116.80;48.87;;;;;;;;;;748346;186;847422;-63
2021/03/03 09:00:21;;;;;;;114.30;48.07;;;;;;;;;;748116;187;633805;-63
2021/03/03 09:02:46;;;;;;;109.77;47.93;;;;;;;;;;731655;189;623217;-63
2021/03/03 09:05:13;;;;;;;84.80;43.03;;;;;;;;;;741033;188;628570;-62
2021/03/03 09:07:38;;;;;;;86.90;40.17;;;;;;;;;;760599;180;615289;-62
2021/03/03 09:10:07;;;;;;;96.87;44.90;;;;;;;;;;761885;180;642812;-63
2021/03/03 09:12:37;;;;;;;92.37;44.70;;;;;;;;;;763005;182;631942;-63
2021/03/03 09:15:03;;;;;;;74.47;39.77;;;;;;;;;;762831;183;632517;-63
2021/03/03 09:17:29;;;;;;;84.67;39.60;;;;;;;;;;766821;183;646866;-63
2021/03/03 09:19:55;;;;;;;75.33;40.10;;;;;;;;;;766972;183;630417;-65
2021/03/03 09:22:21;;;;;;;77.20;39.73;;;;;;;;;;769269;183;672171;-62
2021/03/03 09:24:47;;;;;;;80.13;39.30;;;;;;;;;;765295;183;620304;-63
2021/03/03 09:27:12;;;;;;;67.83;34.63;;;;;;;;;;760352;183;632787;-62
2021/03/03 09:29:39;;;;;;;66.23;34.70;;;;;;;;;;766183;184;629663;-63
2021/03/03 09:32:05;;;;;;;63.33;35.43;;;;;;;;;;763030;183;626402;-63
2021/03/03 09:34:33;;;;;;;67.12;37.33;;;;;;;;;;762996;183;1017277;-64
2021/03/03 09:36:57;;;;;;;59.13;33.47;;;;;;;;;;767891;183;629579;-63
2021/03/03 09:39:23;;;;;;;61.10;36.17;;;;;;;;;;767851;181;627976;-63
2021/03/03 09:41:54;;;;;;;67.10;35.27;;;;;;;;;;764001;182;628121;-63
2021/03/03 09:44:20;;;;;;;58.60;30.40;;;;;;;;;;764176;182;632662;-63
2021/03/03 09:46:53;;;;;;;54.17;31.67;;;;;;;;;;767638;180;631496;-64
2021/03/03 09:49:20;;;;;;;71.30;34.13;;;;;;;;;;769613;183;628727;-63
2021/03/03 09:51:46;;;;;;;64.67;34.10;;;;;;;;;;761093;183;700394;-63
2021/03/03 09:54:12;;;;;;;53.43;32.87;;;;;;;;;;761684;183;625153;-62
2021/03/03 09:56:38;;;;;;;66.30;32.10;;;;;;;;;;768233;182;626086;-63
2021/03/03 09:59:04;;;;;;;55.87;30.87;;;;;;;;;;765565;183;632457;-62
2021/03/03 10:01:30;;;;;;;64.68;29.98;;;;;;;;;;769180;183;624250;-63
2021/03/03 10:03:56;;;;;;;61.57;32.40;;;;;;;;;;763547;183;621206;-63
2021/03/03 10:06:21;;;;;;;58.57;34.77;;;;;;;;;;762021;183;624387;-63
2021/03/03 10:08:47;;;;;;;48.67;28.73;;;;;;;;;;765175;183;656841;-63
2021/03/03 10:11:13;;;;;;;40.30;27.53;;;;;;;;;;762071;183;1044895;-66
2021/03/03 10:13:41;;;;;;;41.60;27.67;;;;;;;;;;764395;181;632571;-63
2021/03/03 10:16:12;;;;;;;41.43;25.63;;;;;;;;;;764390;183;660648;-63
2021/03/03 10:18:37;;;;;;;42.47;23.70;;;;;;;;;;761357;183;635711;-66
2021/03/03 10:21:03;;;;;;;42.30;22.10;;;;;;;;;;761907;183;715667;-62
2021/03/03 10:23:30;;;;;;;36.67;20.93;;;;;;;;;;765173;183;623788;-64
2021/03/03 10:26:00;;;;;;;33.83;20.30;;;;;;;;;;763259;184;639961;-65
2021/03/03 10:28:26;;;;;;;44.47;24.60;;;;;;;;;;758641;183;628780;-63
2021/03/03 10:30:52;;;;;;;42.27;22.20;;;;;;;;;;765303;183;624932;-63
2021/03/03 10:33:39;;;;;;;42.00;24.07;;;;;;;;;;765262;182;621130;-65
2021/03/03 10:36:08;;;;;;;43.20;21.17;;;;;;;;;;760413;183;627312;-63
2021/03/03 10:38:34;;;;;;;36.40;19.27;;;;;;;;;;760552;181;650239;-64
2021/03/03 10:41:00;;;;;;;35.87;20.23;;;;;;;;;;765501;183;620420;-63
2021/03/03 10:43:26;;;;;;;28.33;14.90;;;;;;;;;;764959;183;626560;-64
2021/03/03 10:45:57;;;;;;;30.03;17.13;;;;;;;;;;766282;183;629908;-63
2021/03/03 10:48:31;;;;;;;30.47;16.97;;;;;;;;;;759179;183;630196;-64
2021/03/03 10:51:00;;;;;;;32.00;17.17;;;;;;;;;;764876;183;630567;-63
2021/03/03 10:53:23;;;;;;;39.80;18.70;;;;;;;;;;764977;183;633325;-63
2021/03/03 10:55:48;;;;;;;37.37;21.70;;;;;;;;;;760216;183;631051;-64
2021/03/03 10:58:14;;;;;;;36.87;18.00;;;;;;;;;;764569;183;639374;-63
2021/03/03 11:00:46;;;;;;;37.10;20.73;;;;;;;;;;770855;183;629525;-64
2021/03/03 11:03:12;;;;;;;38.53;21.30;;;;;;;;;;765305;180;637374;-63
2021/03/03 11:05:37;;;;;;;42.90;23.17;;;;;;;;;;761817;183;622872;-64
2021/03/03 11:08:03;;;;;;;48.23;22.00;;;;;;;;;;764037;182;619328;-63
2021/03/03 11:10:29;;;;;;;41.67;22.00;;;;;;;;;;772010;181;631104;-64
2021/03/03 11:12:55;;;;;;;33.53;20.87;;;;;;;;;;762922;182;637750;-64
2021/03/03 11:15:21;;;;;;;47.40;21.00;;;;;;;;;;762173;183;626919;-64
2021/03/03 11:17:47;;;;;;;32.23;19.23;;;;;;;;;;765192;183;626290;-65
2021/03/03 11:20:13;;;;;;;37.73;20.40;;;;;;;;;;761727;183;628186;-63
2021/03/03 11:22:39;;;;;;;34.63;18.13;;;;;;;;;;763011;183;628582;-64
2021/03/03 11:25:05;;;;;;;40.10;20.93;;;;;;;;;;769935;183;621713;-64
2021/03/03 11:27:31;;;;;;;34.77;19.50;;;;;;;;;;765673;183;617251;-64
2021/03/03 11:29:57;;;;;;;38.07;21.87;;;;;;;;;;766875;183;625902;-63
2021/03/03 11:32:22;;;;;;;29.90;18.13;;;;;;;;;;767725;183;627449;-64
2021/03/03 11:34:48;;;;;;;31.53;16.70;;;;;;;;;;759290;183;638535;-63
2021/03/03 11:37:15;;;;;;;28.10;16.30;;;;;;;;;;763367;183;634350;-63
2021/03/03 11:39:40;;;;;;;29.13;14.27;;;;;;;;;;761166;183;633505;-63
2021/03/03 11:42:06;;;;;;;32.33;18.70;;;;;;;;;;768555;183;621712;-63
2021/03/03 11:44:32;;;;;;;35.20;18.00;;;;;;;;;;760947;183;632268;-62
2021/03/03 11:46:58;;;;;;;31.50;15.52;;;;;;;;;;765030;183;628488;-63
2021/03/03 11:49:23;;;;;;;30.40;17.43;;;;;;;;;;767748;183;619549;-62
2021/03/03 11:51:49;;;;;;;28.37;17.73;;;;;;;;;;763460;183;626134;-63
2021/03/03 11:54:15;;;;;;;30.03;17.07;;;;;;;;;;762080;183;633214;-63
2021/03/03 11:56:42;;;;;;;33.97;17.00;;;;;;;;;;768762;183;609109;-64
2021/03/03 11:59:07;;;;;;;28.10;15.80;;;;;;;;;;760926;183;684256;-63
2021/03/03 12:01:33;;;;;;;34.40;14.20;;;;;;;;;;765467;183;627904;-62
2021/03/03 12:03:59;;;;;;;33.53;16.83;;;;;;;;;;763269;183;674178;-62
2021/03/03 12:06:25;;;;;;;17.60;11.93;;;;;;;;;;762631;181;625941;-63
2021/03/03 12:08:51;;;;;;;22.93;12.50;;;;;;;;;;765831;183;640109;-63
2021/03/03 12:11:17;;;;;;;20.07;12.20;;;;;;;;;;764263;183;647632;-63
2021/03/03 12:13:43;;;;;;;19.67;12.50;;;;;;;;;;762836;183;647902;-63
2021/03/03 12:16:09;;;;;;;21.03;12.60;;;;;;;;;;763751;183;637940;-63
2021/03/03 12:18:34;;;;;;;22.97;12.27;;;;;;;;;;764265;181;624430;-63
2021/03/03 12:21:01;;;;;;;25.20;13.77;;;;;;;;;;765608;182;649888;-63
2021/03/03 12:23:26;;;;;;;21.00;11.70;;;;;;;;;;767307;183;617580;-63
2021/03/03 12:25:52;;;;;;;25.23;12.27;;;;;;;;;;764764;183;643773;-63
2021/03/03 12:28:19;;;;;;;24.43;11.50;;;;;;;;;;768994;183;617843;-63
2021/03/03 12:30:44;;;;;;;24.30;12.87;;;;;;;;;;763067;183;628540;-62
2021/03/03 12:33:09;;;;;;;28.07;13.50;;;;;;;;;;767455;183;642943;-62
2021/03/03 12:35:35;;;;;;;18.67;11.77;;;;;;;;;;766403;183;619819;-63
2021/03/03 12:38:01;;;;;;;24.23;12.30;;;;;;;;;;750964;187;628708;-63
2021/03/03 12:40:27;;;;;;;21.50;13.20;;;;;;;;;;752079;185;825331;-64
2021/03/03 12:42:53;;;;;;;18.33;12.10;;;;;;;;;;737761;189;626986;-63
2021/03/03 12:45:19;;;;;;;21.73;13.83;;;;;;;;;;736326;190;630474;-63
2021/03/03 12:47:45;;;;;;;22.10;12.17;;;;;;;;;;734364;187;629027;-63
2021/03/03 12:50:11;;;;;;;19.17;12.60;;;;;;;;;;737069;189;630978;-63
2021/03/03 12:52:37;;;;;;;24.60;13.70;;;;;;;;;;745505;188;632828;-63
2021/03/03 12:55:03;;;;;;;22.97;12.40;;;;;;;;;;741164;185;635812;-63
2021/03/03 12:57:28;;;;;;;21.83;12.50;;;;;;;;;;742480;189;618049;-63
2021/03/03 12:59:54;;;;;;;19.80;11.60;;;;;;;;;;732594;190;629386;-63
2021/03/03 13:02:20;;;;;;;25.00;13.13;;;;;;;;;;731085;189;636518;-63
2021/03/03 13:04:46;;;;;;;19.40;13.07;;;;;;;;;;761223;183;617893;-63
2021/03/03 13:07:12;;;;;;;19.87;12.87;;;;;;;;;;761623;180;626197;-63
2021/03/03 13:09:38;;;;;;;24.30;12.40;;;;;;;;;;764256;183;618290;-64
2021/03/03 13:12:04;;;;;;;22.47;11.90;;;;;;;;;;764089;180;622137;-63
2021/03/03 13:14:29;;;;;;;23.00;13.70;;;;;;;;;;759082;183;638807;-63
2021/03/03 13:16:55;;;;;;;22.83;12.77;;;;;;;;;;763047;180;638312;-63
2021/03/03 13:19:21;;;;;;;19.00;11.70;;;;;;;;;;760455;180;627565;-63
2021/03/03 13:21:47;;;;;;;21.80;13.23;;;;;;;;;;760454;180;626351;-63
2021/03/03 13:24:13;;;;;;;22.17;12.47;;;;;;;;;;762529;183;637757;-64
2021/03/03 13:26:39;;;;;;;21.30;12.43;;;;;;;;;;757985;180;634006;-64
2021/03/03 13:29:05;;;;;;;20.73;10.93;;;;;;;;;;761756;180;641418;-64
2021/03/03 13:31:31;;;;;;;21.80;12.80;;;;;;;;;;761502;180;617538;-63
2021/03/03 13:33:56;;;;;;;20.80;12.53;;;;;;;;;;766454;180;630632;-64
2021/03/03 13:36:22;;;;;;;22.40;12.80;;;;;;;;;;766460;183;627668;-63
2021/03/03 13:38:48;;;;;;;21.23;13.40;;;;;;;;;;766788;183;647067;-64
2021/03/03 13:41:14;;;;;;;20.83;12.40;;;;;;;;;;768157;183;619023;-63
2021/03/03 13:43:40;;;;;;;22.80;13.77;;;;;;;;;;763659;183;625254;-64
2021/03/03 13:46:06;;;;;;;24.03;13.73;;;;;;;;;;765956;183;633506;-64
2021/03/03 13:48:31;;;;;;;26.60;14.60;;;;;;;;;;768117;183;626507;-63
2021/03/03 13:50:57;;;;;;;24.70;15.47;;;;;;;;;;763815;183;631906;-62
2021/03/03 13:53:23;;;;;;;25.17;15.97;;;;;;;;;;757546;183;2026232;-64